Time;durP1;ratioP1;P1;durP2;ratioP2;P2;SDS_P1;SDS_P2;PMS_P1;PMS_P2;Temp;Humidity;BMP_temperature;BMP_pressure;BME280_temperature;BME280_humidity;BME280_pressure;Samples;Min_cycle;Max_cycle;Signal;HPM_P1;HPM_P2
2022/06/03 00:01:07;;;;;;;7.47;4.35;;;;;;;12.07;100.00;102045.25;5033825;28;20033;-66
2022/06/03 00:03:39;;;;;;;6.68;4.55;;;;;;;12.18;100.00;102055.56;5004825;28;20041;-67
2022/06/03 00:06:21;;;;;;;7.00;4.40;;;;;;;12.21;100.00;102055.44;5033737;28;20519;-67
2022/06/03 00:09:07;;;;;;;9.10;4.47;;;;;;;12.22;100.00;102047.44;5033309;28;20029;-66
2022/06/03 00:12:00;;;;;;;6.07;4.30;;;;;;;12.30;100.00;102052.50;5033417;28;20088;-66
2022/06/03 00:14:35;;;;;;;8.30;4.60;;;;;;;12.36;100.00;102046.97;5032745;28;20044;-67
2022/06/03 00:17:25;;;;;;;7.78;4.57;;;;;;;12.40;100.00;102048.59;5033579;28;20037;-66
2022/06/03 00:20:03;;;;;;;6.47;4.28;;;;;;;12.41;100.00;102042.38;5032915;28;20056;-66
2022/06/03 00:22:57;;;;;;;6.60;3.80;;;;;;;12.42;100.00;102041.47;5033363;28;20036;-67
2022/06/03 00:25:44;;;;;;;8.88;4.13;;;;;;;12.42;100.00;102036.16;5032850;28;20087;-67
2022/06/03 00:28:23;;;;;;;7.13;4.13;;;;;;;12.46;100.00;102042.25;5033354;28;20029;-67
2022/06/03 00:31:10;;;;;;;8.43;4.60;;;;;;;12.45;100.00;102046.69;5032897;28;20037;-67
2022/06/03 00:33:52;;;;;;;9.02;4.45;;;;;;;12.45;100.00;102040.50;5014918;28;20532;-67
2022/06/03 00:36:46;;;;;;;7.18;4.28;;;;;;;12.46;100.00;102028.97;5015223;28;20492;-67
2022/06/03 00:39:54;;;;;;;5.55;4.20;;;;;;;12.50;100.00;102038.56;5032899;28;20065;-67
2022/06/03 00:42:28;;;;;;;7.85;4.07;;;;;;;12.51;100.00;102036.78;4994796;28;20045;-68
2022/06/03 00:45:02;;;;;;;6.40;4.07;;;;;;;12.51;100.00;102036.78;5032328;28;20025;-66
2022/06/03 00:47:57;;;;;;;8.05;4.38;;;;;;;12.49;100.00;102034.16;5032717;28;20056;-67
2022/06/03 00:50:41;;;;;;;8.18;3.70;;;;;;;12.48;100.00;102028.91;5032145;28;20476;-67
2022/06/03 00:53:15;;;;;;;6.38;3.83;;;;;;;12.46;100.00;102029.81;5032750;28;20044;-66
2022/06/03 00:56:09;;;;;;;7.38;4.00;;;;;;;12.43;100.00;102035.25;5032410;28;20025;-67
2022/06/03 00:59:10;;;;;;;6.32;4.18;;;;;;;12.45;100.00;102035.19;5032382;28;20034;-67
2022/06/03 01:01:47;;;;;;;6.15;3.60;;;;;;;12.45;100.00;102022.78;5032130;28;20033;-66
2022/06/03 01:04:16;;;;;;;8.27;4.10;;;;;;;12.50;100.00;102030.59;5033078;28;20465;-67
2022/06/03 01:06:49;;;;;;;5.00;3.35;;;;;;;12.50;100.00;102029.72;5032666;28;20112;-67
2022/06/03 01:09:28;;;;;;;7.07;3.80;;;;;;;12.48;100.00;102024.47;5032336;28;20069;-66
2022/06/03 01:11:56;;;;;;;6.90;3.72;;;;;;;12.50;100.00;102019.09;5032025;28;20104;-67
2022/06/03 01:14:51;;;;;;;5.63;3.75;;;;;;;12.51;100.00;102019.03;5032223;28;20495;-67
2022/06/03 01:17:25;;;;;;;6.03;3.80;;;;;;;12.53;100.00;102018.97;5018872;28;20049;-67
2022/06/03 01:20:12;;;;;;;5.32;3.67;;;;;;;12.49;100.00;102023.53;5031933;28;20025;-67
2022/06/03 01:23:25;;;;;;;7.57;3.92;;;;;;;12.49;100.00;102020.00;5029321;28;20033;-66
2022/06/03 01:26:19;;;;;;;;;;;;;;;12.49;100.00;102023.53;5031341;28;20032;-67
2022/06/03 01:29:01;;;;;;;6.85;3.70;;;;;;;12.51;100.00;102018.19;5022773;28;20375;-66
2022/06/03 01:31:52;;;;;;;6.03;3.58;;;;;;;12.50;100.00;102017.31;5032171;28;20025;-67
2022/06/03 01:34:26;;;;;;;5.68;3.65;;;;;;;12.46;100.00;102011.22;5031264;28;20033;-65
2022/06/03 01:37:05;;;;;;;8.00;3.47;;;;;;;12.44;100.00;102004.22;5031617;28;20029;-66
2022/06/03 01:40:18;;;;;;;7.80;3.55;;;;;;;12.40;100.00;102002.59;5031904;28;20124;-67
2022/06/03 01:43:15;;;;;;;4.45;3.33;;;;;;;12.36;100.00;102003.63;4990278;28;20035;-66
2022/06/03 01:46:21;;;;;;;4.72;3.50;;;;;;;12.34;100.00;102000.13;5019269;28;20098;-66
2022/06/03 01:48:57;;;;;;;4.65;3.38;;;;;;;12.36;100.00;101993.00;5003076;28;20066;-67
2022/06/03 01:51:37;;;;;;;6.57;3.67;;;;;;;12.38;100.00;101997.34;5011936;28;20033;-67
2022/06/03 01:54:29;;;;;;;6.70;3.80;;;;;;;12.35;100.00;102000.09;5020396;28;20029;-67
2022/06/03 01:57:01;;;;;;;7.13;3.60;;;;;;;12.36;100.00;102009.78;5031174;28;20029;-67
2022/06/03 02:00:20;;;;;;;7.68;3.80;;;;;;;12.37;100.00;102003.56;5031373;28;20477;-66
2022/06/03 02:03:07;;;;;;;5.45;3.40;;;;;;;12.34;100.00;101994.81;4970669;28;20046;-67
2022/06/03 02:05:48;;;;;;;5.72;3.53;;;;;;;12.29;100.00;101995.00;5014594;28;20029;-67
2022/06/03 02:08:44;;;;;;;5.47;3.55;;;;;;;12.31;100.00;101997.59;5038003;28;20131;-67
2022/06/03 02:11:29;;;;;;;5.95;3.67;;;;;;;12.31;100.00;101995.81;5032199;28;20038;-67
2022/06/03 02:14:33;;;;;;;4.68;3.50;;;;;;;12.33;99.75;101990.44;5018579;28;20025;-66
2022/06/03 02:17:18;;;;;;;7.05;3.50;;;;;;;12.37;99.32;101992.09;5017053;28;20033;-67
2022/06/03 02:19:49;;;;;;;4.88;3.20;;;;;;;12.35;99.10;101988.59;5036775;28;20056;-67
2022/06/03 02:22:48;;;;;;;6.88;3.40;;;;;;;12.34;98.62;101990.41;5038312;28;20436;-67
2022/06/03 02:25:24;;;;;;;6.32;3.47;;;;;;;12.37;98.78;101987.63;5037909;28;20381;-66
2022/06/03 02:28:19;;;;;;;4.57;2.90;;;;;;;12.39;99.16;101987.56;5037674;28;20091;-66
2022/06/03 02:31:24;;;;;;;6.57;3.55;;;;;;;12.33;99.10;101993.97;5018444;28;20080;-67
2022/06/03 02:34:27;;;;;;;6.43;3.70;;;;;;;12.27;99.38;101986.22;5018226;28;20030;-66
2022/06/03 02:37:14;;;;;;;5.10;3.38;;;;;;;12.25;99.93;101988.91;5015129;28;20028;-66
2022/06/03 02:40:07;;;;;;;6.55;3.58;;;;;;;12.26;99.41;101980.03;5037722;28;20092;-67
2022/06/03 02:42:51;;;;;;;5.50;3.40;;;;;;;12.21;98.40;101979.31;5038136;28;20034;-66
2022/06/03 02:45:35;;;;;;;6.38;3.55;;;;;;;12.18;99.04;101981.22;5038036;28;20036;-66
2022/06/03 02:48:28;;;;;;;5.72;3.50;;;;;;;12.12;99.65;101979.59;5036000;28;20099;-67
2022/06/03 02:51:13;;;;;;;7.03;3.60;;;;;;;12.11;99.56;101980.53;5019604;28;20052;-67
2022/06/03 02:54:15;;;;;;;8.07;3.72;;;;;;;12.10;99.50;101977.00;5037771;28;20040;-67
2022/06/03 02:57:08;;;;;;;5.97;3.28;;;;;;;12.06;99.51;101963.88;5037298;28;20020;-67
2022/06/03 02:59:36;;;;;;;5.55;3.45;;;;;;;12.06;99.83;101964.75;5037284;28;20022;-65
2022/06/03 03:02:27;;;;;;;8.02;3.70;;;;;;;12.10;99.98;101961.09;5037401;28;20049;-66
2022/06/03 03:05:02;;;;;;;7.10;3.70;;;;;;;12.07;100.00;101955.88;5019883;28;20397;-66
2022/06/03 03:07:34;;;;;;;6.13;3.50;;;;;;;12.04;100.00;101958.63;5019345;28;20052;-66
2022/06/03 03:10:15;;;;;;;5.70;3.58;;;;;;;12.04;100.00;101949.81;5037225;28;20033;-66
2022/06/03 03:12:58;;;;;;;6.82;3.30;;;;;;;11.99;100.00;101955.25;5037819;28;20079;-66
2022/06/03 03:15:50;;;;;;;5.78;3.55;;;;;;;11.97;100.00;101954.44;5019237;28;20025;-67
2022/06/03 03:18:41;;;;;;;7.72;3.72;;;;;;;11.92;100.00;101945.75;5033540;28;20020;-67
2022/06/03 03:21:34;;;;;;;5.07;3.63;;;;;;;11.87;100.00;101945.88;5016517;28;20122;-65
2022/06/03 03:24:37;;;;;;;7.82;3.55;;;;;;;11.85;100.00;101942.41;5034446;28;20156;-66
2022/06/03 03:27:28;;;;;;;6.88;3.45;;;;;;;11.80;100.00;101939.03;5016392;28;20029;-66
2022/06/03 03:30:09;;;;;;;5.40;3.67;;;;;;;11.76;100.00;101930.28;5033599;28;20497;-66
2022/06/03 03:32:58;;;;;;;6.53;3.60;;;;;;;11.82;100.00;101937.19;5034394;28;20040;-66
2022/06/03 03:35:48;;;;;;;6.07;3.70;;;;;;;11.80;100.00;101934.59;5034152;28;20029;-66
2022/06/03 03:38:44;;;;;;;6.53;3.58;;;;;;;11.78;100.00;101944.38;5033494;28;20541;-66
2022/06/03 03:41:21;;;;;;;6.35;4.30;;;;;;;11.74;100.00;101937.44;4996900;28;20040;-66
2022/06/03 03:44:22;;;;;;;7.35;4.05;;;;;;;11.73;100.00;101945.47;4996890;28;20485;-66
2022/06/03 03:47:41;;;;;;;6.68;3.80;;;;;;;11.63;100.00;101928.97;5014294;28;20017;-67
2022/06/03 03:51:00;;;;;;;7.68;3.88;;;;;;;11.64;100.00;101931.56;4946010;29;20082;-67
2022/06/03 03:53:41;;;;;;;5.10;3.67;;;;;;;11.66;100.00;101936.81;4934505;29;20431;-67
2022/06/03 03:56:06;;;;;;;5.75;3.75;;;;;;;11.66;100.00;101933.31;5033709;28;20485;-67
2022/06/03 03:58:38;;;;;;;6.82;3.80;;;;;;;11.61;100.00;101922.81;5033285;28;20032;-67
2022/06/03 04:01:21;;;;;;;6.15;3.90;;;;;;;11.57;100.00;101923.84;5033232;28;20504;-66
2022/06/03 04:04:21;;;;;;;6.50;4.05;;;;;;;11.50;100.00;101930.28;5033558;28;20036;-66
2022/06/03 04:07:18;;;;;;;6.03;4.00;;;;;;;11.45;100.00;101925.09;5033538;28;20033;-67
2022/06/03 04:10:08;;;;;;;7.22;3.90;;;;;;;11.39;100.00;101926.16;5033025;28;20025;-67
2022/06/03 04:12:41;;;;;;;5.47;3.95;;;;;;;11.35;100.00;101929.81;5032209;28;20037;-67
2022/06/03 04:15:37;;;;;;;6.95;4.00;;;;;;;11.35;100.00;101934.25;5033523;28;20029;-66
2022/06/03 04:18:27;;;;;;;8.02;4.28;;;;;;;11.30;100.00;101919.38;5033304;28;20426;-67
2022/06/03 04:21:11;;;;;;;6.32;4.25;;;;;;;11.29;100.00;101914.09;5032688;28;20543;-67
2022/06/03 04:24:07;;;;;;;9.57;4.43;;;;;;;11.28;100.00;101918.53;5033321;28;20378;-66
2022/06/03 04:26:58;;;;;;;8.05;4.60;;;;;;;11.33;100.00;101902.50;5033243;28;20030;-66
2022/06/03 04:29:35;;;;;;;8.67;4.10;;;;;;;11.38;100.00;101910.28;5032169;28;20112;-66
2022/06/03 04:32:03;;;;;;;8.13;4.05;;;;;;;11.45;100.00;101909.19;5032964;28;20037;-66
2022/06/03 04:34:47;;;;;;;6.60;3.92;;;;;;;11.45;100.00;101911.84;5033051;28;20029;-66
2022/06/03 04:37:49;;;;;;;9.45;4.32;;;;;;;11.51;100.00;101911.66;5032970;28;20037;-66
2022/06/03 04:40:33;;;;;;;5.85;4.15;;;;;;;11.55;100.00;101920.38;5032829;28;20067;-67
2022/06/03 04:43:16;;;;;;;7.90;4.30;;;;;;;11.60;100.00;101916.66;5031620;28;20036;-67
2022/06/03 04:46:19;;;;;;;7.03;4.32;;;;;;;11.69;100.00;101912.84;5029021;28;20033;-66
2022/06/03 04:49:22;;;;;;;7.72;3.95;;;;;;;11.75;100.00;101912.66;5014361;28;20079;-67
2022/06/03 04:52:10;;;;;;;7.25;4.22;;;;;;;11.80;100.00;101912.47;5028957;28;20032;-66
2022/06/03 04:55:00;;;;;;;6.13;3.92;;;;;;;11.84;100.00;101913.25;5029475;28;20544;-66
2022/06/03 04:57:56;;;;;;;6.70;3.95;;;;;;;11.92;100.00;101904.13;5030453;28;20048;-66
2022/06/03 05:00:25;;;;;;;7.35;4.25;;;;;;;11.97;100.00;101911.97;5031834;28;20393;-66
2022/06/03 05:03:32;;;;;;;6.70;4.03;;;;;;;12.01;100.00;101916.25;5013194;28;20442;-67
2022/06/03 05:06:16;;;;;;;8.13;4.18;;;;;;;12.08;99.18;101909.81;5012594;28;20044;-66
2022/06/03 05:09:13;;;;;;;7.85;4.00;;;;;;;12.15;99.38;101907.84;5014742;28;20076;-66
2022/06/03 05:11:56;;;;;;;8.32;4.68;;;;;;;12.21;98.77;101915.59;5030784;28;20033;-67
2022/06/03 05:14:53;;;;;;;6.13;3.83;;;;;;;12.26;98.61;101908.34;5012249;28;20026;-67
2022/06/03 05:17:37;;;;;;;7.05;4.10;;;;;;;12.33;98.55;101916.06;5032088;28;20079;-66
2022/06/03 05:20:05;;;;;;;6.75;4.40;;;;;;;12.38;98.36;101917.66;5023614;28;20056;-66
2022/06/03 05:23:07;;;;;;;7.93;4.30;;;;;;;12.46;98.29;101912.06;5033752;28;20104;-66
2022/06/03 05:25:58;;;;;;;6.80;4.20;;;;;;;12.54;97.24;101917.97;5031798;28;20061;-67
2022/06/03 05:28:48;;;;;;;7.18;4.20;;;;;;;12.58;97.07;101908.97;5031936;28;20567;-66
2022/06/03 05:31:38;;;;;;;6.03;3.85;;;;;;;12.71;96.28;101903.19;5031920;28;20044;-66
2022/06/03 05:34:23;;;;;;;7.43;4.25;;;;;;;12.74;96.47;101905.75;5012196;28;20500;-66
2022/06/03 05:36:59;;;;;;;7.97;4.18;;;;;;;12.79;95.67;101901.13;5012157;28;20034;-66
2022/06/03 05:39:43;;;;;;;8.77;4.10;;;;;;;12.91;95.54;101899.81;5030751;28;20041;-66
2022/06/03 05:42:30;;;;;;;7.70;4.03;;;;;;;13.02;95.16;101899.38;5032952;28;20091;-66
2022/06/03 05:44:55;;;;;;;6.65;4.47;;;;;;;13.05;94.64;101905.44;5018057;28;20026;-66
2022/06/03 05:47:29;;;;;;;6.45;4.57;;;;;;;13.11;94.88;101907.88;5010891;28;20033;-66
2022/06/03 05:50:13;;;;;;;6.28;4.18;;;;;;;13.18;94.25;101897.88;5029095;28;20481;-67
2022/06/03 05:53:10;;;;;;;6.55;4.20;;;;;;;13.24;94.42;101904.75;5031075;28;20029;-66
2022/06/03 05:55:53;;;;;;;8.32;4.60;;;;;;;13.30;93.96;101901.88;5021851;28;20037;-67
2022/06/03 05:58:45;;;;;;;5.53;3.90;;;;;;;13.39;91.91;101909.50;5013550;28;20108;-67
2022/06/03 06:01:29;;;;;;;6.60;4.03;;;;;;;13.44;92.43;101912.84;5031477;28;20037;-67
2022/06/03 06:04:13;;;;;;;8.98;4.65;;;;;;;13.53;92.08;101905.41;5031070;28;20021;-67
2022/06/03 06:07:07;;;;;;;5.55;3.80;;;;;;;13.62;91.81;101910.38;5022126;28;20057;-66
2022/06/03 06:09:46;;;;;;;7.00;4.60;;;;;;;13.72;91.77;101917.06;5024049;28;20108;-67
2022/06/03 06:12:30;;;;;;;6.90;4.75;;;;;;;13.70;90.01;101912.72;5029718;28;20029;-66
2022/06/03 06:15:14;;;;;;;8.75;4.80;;;;;;;13.75;90.37;101927.56;5028240;28;20108;-67
2022/06/03 06:17:47;;;;;;;6.53;4.60;;;;;;;13.82;90.18;101914.88;5012626;28;20033;-66
2022/06/03 06:20:32;;;;;;;7.40;4.63;;;;;;;13.91;90.23;101914.50;5013385;28;20104;-66
2022/06/03 06:23:26;;;;;;;7.50;4.40;;;;;;;13.95;89.40;101919.69;5029888;28;20112;-66
2022/06/03 06:25:57;;;;;;;6.97;4.78;;;;;;;14.04;89.25;101930.84;5030390;28;20100;-66
2022/06/03 06:28:56;;;;;;;6.30;4.18;;;;;;;14.15;88.67;101929.53;5031816;28;20507;-67
2022/06/03 06:31:43;;;;;;;6.50;4.75;;;;;;;14.19;88.91;101923.13;4995873;28;20504;-66
2022/06/03 06:34:43;;;;;;;7.10;4.63;;;;;;;14.24;90.04;101931.78;5031057;28;20033;-66
2022/06/03 06:37:48;;;;;;;7.15;4.43;;;;;;;14.32;89.57;101931.44;5030586;28;20095;-66
2022/06/03 06:40:32;;;;;;;6.65;4.63;;;;;;;14.35;88.40;101921.53;5029497;28;20374;-67
2022/06/03 06:43:29;;;;;;;8.35;4.72;;;;;;;14.44;88.01;101930.94;5030757;28;20108;-67
2022/06/03 06:45:58;;;;;;;7.57;4.68;;;;;;;14.52;88.31;101927.94;5030909;28;20025;-67
2022/06/03 06:48:32;;;;;;;6.78;4.90;;;;;;;14.52;87.92;101915.44;5012517;28;20504;-67
2022/06/03 06:51:10;;;;;;;6.53;4.38;;;;;;;14.62;88.06;101915.91;5031294;28;20041;-67
2022/06/03 06:53:54;;;;;;;8.02;4.97;;;;;;;14.66;86.85;101916.69;5045656;28;20083;-67
2022/06/03 06:56:36;;;;;;;8.50;5.13;;;;;;;14.71;88.16;101917.34;5033965;28;20104;-67
2022/06/03 06:59:07;;;;;;;8.52;4.78;;;;;;;14.79;87.76;101906.34;5030363;28;20492;-67
2022/06/03 07:01:47;;;;;;;12.50;5.32;;;;;;;14.90;86.90;101907.56;5033928;28;20051;-67
2022/06/03 07:04:35;;;;;;;8.02;5.00;;;;;;;14.98;86.13;101899.22;5033523;28;20536;-67
2022/06/03 07:07:13;;;;;;;9.23;4.78;;;;;;;15.03;86.54;101901.66;5029469;28;20033;-66
2022/06/03 07:09:51;;;;;;;9.07;4.75;;;;;;;15.14;86.33;101888.69;5010573;28;20168;-66
2022/06/03 07:12:21;;;;;;;7.70;4.60;;;;;;;15.22;85.36;101886.50;5030418;28;20636;-66
2022/06/03 07:15:04;;;;;;;7.43;5.00;;;;;;;15.28;85.16;101889.81;5016320;28;20081;-66
2022/06/03 07:20:57;;;;;;;6.53;4.93;;;;;;;15.47;85.47;101897.81;5033640;28;20110;-67
2022/06/03 07:23:34;;;;;;;8.32;4.60;;;;;;;15.52;84.00;101891.28;5032621;28;20068;-67
2022/06/03 07:26:09;;;;;;;7.35;4.78;;;;;;;15.61;85.05;101894.47;5033769;28;20492;-67
2022/06/03 07:28:54;;;;;;;7.22;4.68;;;;;;;15.67;83.21;101887.00;5025509;28;20214;-67
2022/06/03 07:31:27;;;;;;;7.50;4.85;;;;;;;15.78;83.28;101901.63;5032733;28;20370;-66
2022/06/03 07:33:58;;;;;;;7.43;4.63;;;;;;;15.91;82.84;101899.25;5033686;28;20095;-67
2022/06/03 07:36:50;;;;;;;7.07;4.93;;;;;;;15.97;82.12;101905.16;5013690;28;20418;-67
2022/06/03 07:39:43;;;;;;;7.25;4.25;;;;;;;16.09;82.21;101900.13;5032937;28;20133;-67
2022/06/03 07:42:34;;;;;;;8.20;4.47;;;;;;;16.25;82.32;101895.72;5022236;28;20100;-67
2022/06/03 07:45:14;;;;;;;7.63;4.47;;;;;;;16.42;80.59;101897.53;5033499;28;20049;-67
2022/06/03 07:47:40;;;;;;;7.32;4.47;;;;;;;16.53;80.47;101888.91;5033424;28;20063;-65
2022/06/03 07:50:13;;;;;;;8.77;4.72;;;;;;;16.59;80.45;101893.94;5032413;28;20037;-65
2022/06/03 07:52:43;;;;;;;10.90;7.13;;;;;;;16.78;79.74;101906.34;5033110;28;20033;-66
2022/06/03 07:55:21;;;;;;;8.82;4.68;;;;;;;16.85;77.46;101897.00;5013825;28;20032;-66
2022/06/03 07:57:55;;;;;;;7.18;5.07;;;;;;;16.86;77.02;101890.72;5013434;28;20040;-66
2022/06/03 08:00:25;;;;;;;7.68;4.40;;;;;;;16.94;78.20;101887.66;5031660;28;20104;-66
2022/06/03 08:03:01;;;;;;;6.82;4.47;;;;;;;17.02;76.88;101885.41;5032181;28;20025;-64
2022/06/03 08:05:27;;;;;;;7.82;4.70;;;;;;;17.14;78.28;101884.72;5032620;28;20374;-65
2022/06/03 08:10:58;;;;;;;7.13;4.13;;;;;;;17.38;77.63;101889.66;5037430;28;20376;-66
2022/06/03 08:13:39;;;;;;;6.35;4.07;;;;;;;17.45;75.85;101879.47;5015549;28;20028;-65
2022/06/03 08:16:10;;;;;;;6.50;4.03;;;;;;;17.56;75.84;101869.00;5029134;28;20250;-65
2022/06/03 08:18:42;;;;;;;6.40;3.88;;;;;;;17.73;77.04;101859.97;5032209;28;20061;-66
2022/06/03 08:21:11;;;;;;;6.93;3.90;;;;;;;17.84;75.04;101854.84;5032723;28;20022;-66
2022/06/03 08:23:38;;;;;;;6.97;4.00;;;;;;;17.96;75.06;101850.59;5032268;28;20029;-64
2022/06/03 08:26:17;;;;;;;7.80;4.38;;;;;;;18.00;75.59;101853.94;5032735;28;20034;-65
2022/06/03 08:28:52;;;;;;;7.22;4.15;;;;;;;18.08;74.13;101854.38;5028548;28;20131;-66
2022/06/03 08:31:22;;;;;;;6.32;4.20;;;;;;;18.17;72.47;101856.47;5022694;28;20075;-66
2022/06/03 08:33:59;;;;;;;10.25;4.65;;;;;;;18.33;74.84;101853.72;5026568;28;20022;-66
2022/06/03 08:36:34;;;;;;;7.80;4.05;;;;;;;18.69;73.01;101845.28;5035558;28;20031;-66
2022/06/03 08:39:29;;;;;;;7.38;4.85;;;;;;;20.22;65.89;101849.53;5028805;28;20385;-65
2022/06/03 08:42:13;;;;;;;4.93;4.10;;;;;;;21.58;61.65;101849.69;5031805;28;20028;-67
2022/06/03 08:44:46;;;;;;;5.53;3.78;;;;;;;23.05;56.76;101830.09;5000900;28;20111;-65
2022/06/03 08:47:29;;;;;;;5.95;3.53;;;;;;;24.12;48.44;101837.41;5032054;28;20033;-64
2022/06/03 08:49:57;;;;;;;8.07;3.85;;;;;;;24.73;47.00;101842.00;5031322;28;20083;-65
2022/06/03 08:52:46;;;;;;;5.78;3.90;;;;;;;24.44;44.38;101831.91;5031362;28;20079;-65
2022/06/03 08:55:28;;;;;;;7.03;4.13;;;;;;;23.89;45.32;101832.97;5031613;28;20029;-66
2022/06/03 08:57:59;;;;;;;7.10;4.00;;;;;;;23.68;45.77;101834.81;5031208;28;20037;-65
2022/06/03 09:00:40;;;;;;;;;;;;;;;23.99;46.25;101834.91;5031590;28;20092;-66
2022/06/03 09:03:13;;;;;;;7.00;4.57;;;;;;;24.16;44.66;101838.88;5030143;28;19995;-66
2022/06/03 09:05:51;;;;;;;6.20;3.75;;;;;;;24.41;43.19;101834.00;5028015;28;20042;-65
2022/06/03 09:08:29;;;;;;;5.72;3.22;;;;;;;24.98;42.57;101835.22;5029609;28;20116;-65
2022/06/03 09:11:02;;;;;;;7.35;3.53;;;;;;;24.86;41.64;101830.94;5031060;28;20059;-65
2022/06/03 09:13:36;;;;;;;5.75;3.90;;;;;;;24.99;40.58;101833.41;5030839;28;20037;-65
2022/06/03 09:16:05;;;;;;;5.88;3.58;;;;;;;25.77;40.86;101836.16;5030205;28;20493;-65
2022/06/03 09:18:46;;;;;;;5.63;3.83;;;;;;;25.84;39.33;101840.03;5031183;28;20112;-66
2022/06/03 09:21:14;;;;;;;9.45;3.38;;;;;;;25.71;39.58;101835.88;5031630;28;20044;-66
2022/06/03 09:23:44;;;;;;;4.78;2.80;;;;;;;25.66;39.49;101839.88;5031647;28;20025;-65
2022/06/03 09:26:26;;;;;;;5.22;3.22;;;;;;;25.53;37.47;101833.88;5031267;28;20048;-65
2022/06/03 09:28:53;;;;;;;6.82;3.38;;;;;;;25.34;39.24;101842.84;5031282;28;20032;-65
2022/06/03 09:31:21;;;;;;;4.72;3.00;;;;;;;25.65;38.48;101845.44;5030144;28;20512;-65
2022/06/03 09:33:46;;;;;;;6.40;3.50;;;;;;;26.08;38.83;101846.00;5029948;28;20034;-66
2022/06/03 09:36:18;;;;;;;7.05;3.60;;;;;;;26.19;37.38;101851.25;5030593;28;20479;-64
2022/06/03 09:38:59;;;;;;;5.30;3.10;;;;;;;25.95;38.66;101849.00;5009854;28;20049;-64
2022/06/03 09:41:29;;;;;;;4.50;2.70;;;;;;;26.49;37.63;101841.97;5011643;28;20069;-63
2022/06/03 09:43:57;;;;;;;5.20;2.97;;;;;;;26.87;36.88;101832.97;5011525;28;20055;-63
2022/06/03 09:46:26;;;;;;;6.28;2.63;;;;;;;26.96;37.50;101834.78;5010246;28;20056;-65
2022/06/03 09:48:52;;;;;;;3.60;2.70;;;;;;;27.34;35.73;101845.53;5011320;28;20018;-65
2022/06/03 09:51:55;;;;;;;5.10;2.80;;;;;;;27.36;34.80;101832.66;4993367;28;20068;-65
2022/06/03 09:54:12;;;;;;;5.28;2.90;;;;;;;27.41;34.96;101839.34;5009075;28;20026;-65
2022/06/03 09:56:38;;;;;;;5.18;2.85;;;;;;;27.44;37.80;101840.91;5005013;28;20038;-66
2022/06/03 09:59:04;;;;;;;5.05;3.03;;;;;;;27.12;37.59;101834.09;5011788;28;20428;-65
2022/06/03 10:01:30;;;;;;;5.32;2.97;;;;;;;26.76;36.44;101842.19;5010978;28;20037;-65
2022/06/03 10:04:05;;;;;;;4.70;2.70;;;;;;;26.49;35.37;101838.44;5010937;28;20088;-65
2022/06/03 10:06:43;;;;;;;5.07;3.10;;;;;;;26.18;37.60;101841.41;5011442;28;20066;-67
2022/06/03 10:18:04;;;;;;;3.00;2.70;;;;;;;26.90;34.76;101843.53;5010669;28;20068;-64
2022/06/03 10:20:29;;;;;;;3.47;2.50;;;;;;;26.43;35.77;101839.88;5011063;28;20465;-64
2022/06/03 10:22:56;;;;;;;3.80;2.35;;;;;;;26.48;40.01;101834.00;5010173;28;20030;-65
2022/06/03 10:25:23;;;;;;;3.95;2.28;;;;;;;26.77;36.52;101831.16;5010482;28;20034;-64
2022/06/03 10:27:49;;;;;;;3.40;2.42;;;;;;;26.64;35.37;101828.78;5014953;28;20032;-63
2022/06/03 10:30:23;;;;;;;4.55;2.70;;;;;;;26.96;33.42;101823.91;5013566;28;20029;-66
2022/06/03 10:32:50;;;;;;;5.30;2.30;;;;;;;27.24;35.35;101822.00;5011578;28;20026;-65
2022/06/03 10:35:17;;;;;;;2.67;2.40;;;;;;;27.25;35.67;101812.84;5014914;28;20026;-65
2022/06/03 10:37:52;;;;;;;4.40;2.15;;;;;;;27.52;35.60;101816.50;5014862;28;20436;-64
2022/06/03 10:40:20;;;;;;;4.20;2.58;;;;;;;27.95;33.96;101808.47;5013166;28;20030;-64
2022/06/03 10:42:47;;;;;;;3.40;2.40;;;;;;;28.28;33.52;101809.53;5014475;28;20034;-64
2022/06/03 10:45:17;;;;;;;5.22;2.28;;;;;;;28.27;35.63;101821.47;5013838;28;20024;-65
2022/06/03 10:47:48;;;;;;;4.97;2.47;;;;;;;28.77;32.62;101808.94;5014746;28;20112;-65
2022/06/03 10:50:38;;;;;;;3.20;2.30;;;;;;;28.93;31.25;101791.75;5013473;28;20492;-64
2022/06/03 11:01:43;;;;;;;2.47;2.28;;;;;;;27.29;33.50;101802.47;5014123;28;20052;-65
2022/06/03 11:04:24;;;;;;;4.93;2.42;;;;;;;27.71;33.29;101799.16;5014648;28;20029;-65
2022/06/03 11:06:50;;;;;;;;;;;;;;;28.06;33.76;101791.06;5010866;28;20453;-65
2022/06/03 11:09:16;;;;;;;3.70;1.95;;;;;;;28.58;33.00;101793.69;5003640;28;19921;-65
2022/06/03 11:11:51;;;;;;;2.70;2.20;;;;;;;28.47;31.07;101799.44;5015280;28;20049;-65
2022/06/03 11:14:39;;;;;;;3.95;2.60;;;;;;;28.20;32.55;101797.75;5012181;28;20032;-65
2022/06/03 11:17:22;;;;;;;4.93;2.53;;;;;;;28.55;32.00;101791.28;5012349;28;20121;-64
2022/06/03 11:19:56;;;;;;;2.78;2.50;;;;;;;29.18;32.12;101793.69;5013777;28;20087;-65
2022/06/03 11:22:36;;;;;;;3.70;2.53;;;;;;;29.40;31.91;101793.03;5011620;28;20022;-64
2022/06/03 11:25:21;;;;;;;3.35;2.50;;;;;;;29.33;31.63;101792.00;4993914;28;20034;-64
2022/06/03 11:28:07;;;;;;;3.85;2.63;;;;;;;29.09;30.56;101788.22;5014424;28;20028;-66
2022/06/03 11:30:46;;;;;;;3.22;2.45;;;;;;;28.70;32.84;101786.09;5012778;28;20432;-65
2022/06/03 11:33:36;;;;;;;4.00;2.30;;;;;;;28.86;31.67;101790.72;5013725;28;20021;-65
2022/06/03 11:36:21;;;;;;;2.53;2.22;;;;;;;29.07;31.08;101783.97;5012762;28;20025;-65
2022/06/03 11:38:54;;;;;;;3.95;2.40;;;;;;;29.50;31.53;101790.13;5019958;28;20111;-65
2022/06/03 11:41:27;;;;;;;3.83;2.70;;;;;;;29.34;30.48;101790.16;5033611;28;20025;-65
2022/06/03 11:44:11;;;;;;;4.00;2.45;;;;;;;28.89;31.27;101789.53;5032973;28;20028;-65
2022/06/03 11:46:43;;;;;;;4.03;2.80;;;;;;;29.05;29.73;101786.00;5033218;28;20025;-64
2022/06/03 11:49:09;;;;;;;4.28;2.58;;;;;;;29.47;31.61;101793.22;5033224;28;20033;-64
2022/06/03 11:51:36;;;;;;;3.72;2.42;;;;;;;29.47;29.67;101797.81;5033029;28;20037;-63
2022/06/03 11:54:02;;;;;;;3.10;2.40;;;;;;;29.32;30.99;101784.00;5025504;28;20108;-65
2022/06/03 11:56:33;;;;;;;3.60;2.25;;;;;;;29.43;30.33;101784.50;5032599;28;20485;-65
2022/06/03 11:59:38;;;;;;;5.22;2.53;;;;;;;29.35;30.50;101787.25;5032963;28;20033;-65
2022/06/03 12:02:37;;;;;;;3.95;2.30;;;;;;;29.33;31.35;101792.00;5005014;28;20515;-65
2022/06/03 12:05:14;;;;;;;3.22;2.30;;;;;;;30.01;30.24;101795.38;5032964;28;20030;-65
2022/06/03 12:07:45;;;;;;;2.58;2.25;;;;;;;29.71;30.32;101794.22;5015399;28;20036;-66
2022/06/03 12:10:40;;;;;;;3.08;2.40;;;;;;;29.62;28.75;101797.97;5032746;28;20088;-65
2022/06/03 12:13:23;;;;;;;3.95;2.13;;;;;;;29.81;29.48;101792.16;5033140;28;20021;-65
2022/06/03 12:15:54;;;;;;;3.65;2.22;;;;;;;29.51;29.84;101786.38;5010164;28;20035;-64
2022/06/03 12:18:35;;;;;;;7.10;3.35;;;;;;;29.03;31.16;101779.84;5031684;28;20029;-64
2022/06/03 12:21:14;;;;;;;6.70;2.58;;;;;;;29.31;30.05;101782.28;5031635;28;20021;-65
2022/06/03 12:23:41;;;;;;;4.55;2.60;;;;;;;29.22;30.59;101782.28;5005696;28;20037;-65
2022/06/03 12:26:22;;;;;;;3.45;2.45;;;;;;;29.36;30.40;101782.63;5038402;28;20030;-65
2022/06/03 12:28:50;;;;;;;3.25;2.30;;;;;;;28.73;29.10;101779.44;5026120;28;20029;-66
2022/06/03 12:31:19;;;;;;;4.90;2.80;;;;;;;28.27;31.34;101779.75;5032019;28;20029;-65
2022/06/03 12:34:08;;;;;;;6.03;2.40;;;;;;;28.31;30.72;101788.47;5014778;28;20029;-65
2022/06/03 12:36:51;;;;;;;2.85;2.42;;;;;;;28.81;31.07;101779.47;5031291;28;20162;-65
2022/06/03 12:39:26;;;;;;;2.92;2.53;;;;;;;28.89;31.74;101768.59;5010923;28;20041;-65
2022/06/03 12:41:51;;;;;;;2.67;2.10;;;;;;;29.81;29.73;101780.38;5014496;28;20025;-65
2022/06/03 12:44:39;;;;;;;4.63;2.47;;;;;;;29.21;29.86;101780.56;5032344;28;20223;-65
2022/06/03 12:47:35;;;;;;;3.78;2.28;;;;;;;28.41;31.84;101783.72;5032151;28;20283;-64
2022/06/03 12:50:04;;;;;;;3.38;2.63;;;;;;;27.39;31.73;101781.56;5030842;28;20033;-65
2022/06/03 12:52:29;;;;;;;4.22;2.47;;;;;;;27.45;33.37;101772.72;5031450;28;20025;-65
2022/06/03 12:55:06;;;;;;;4.03;2.20;;;;;;;28.04;32.37;101790.34;5031445;28;20033;-66